createdAt,value
2022-10-20T00:01:44.514Z,3.60
2022-10-20T00:04:11.017Z,4.10
2022-10-20T00:06:37.501Z,4.13
2022-10-20T00:09:04.180Z,3.78
2022-10-20T00:11:31.034Z,2.72
2022-10-20T00:13:57.703Z,4.47
2022-10-20T00:16:24.755Z,3.85
2022-10-20T00:18:51.235Z,4.63
2022-10-20T00:21:19.471Z,2.15
2022-10-20T00:23:45.946Z,2.38
2022-10-20T00:26:14.882Z,3.20
2022-10-20T00:28:41.456Z,2.60
2022-10-20T00:31:07.961Z,3.92
2022-10-20T00:33:34.535Z,2.85
2022-10-20T00:36:01.815Z,2.33
2022-10-20T00:38:28.343Z,2.88
2022-10-20T00:40:54.865Z,3.47
2022-10-20T00:43:21.366Z,3.50
2022-10-20T00:45:53.147Z,3.08
2022-10-20T00:48:21.138Z,4.15
2022-10-20T00:50:50.273Z,2.60
2022-10-20T00:53:21.365Z,2.33
2022-10-20T00:55:48.878Z,2.72
2022-10-20T00:58:15.339Z,2.67
2022-10-20T01:00:42.137Z,1.48
2022-10-20T01:03:12.937Z,2.55
2022-10-20T01:05:39.487Z,2.97
2022-10-20T01:08:06.091Z,3.17
2022-10-20T01:10:49.907Z,2.88
2022-10-20T01:13:23.512Z,2.10
2022-10-20T01:16:11.996Z,2.25
2022-10-20T01:19:18.758Z,2.63
2022-10-20T01:22:06.591Z,3.03
2022-10-20T01:24:38.873Z,1.90
2022-10-20T01:27:42.267Z,2.83
2022-10-20T01:30:11.184Z,1.58
2022-10-20T01:32:54.648Z,1.83
2022-10-20T01:35:48.235Z,2.73
2022-10-20T01:38:28.154Z,2.03
2022-10-20T01:40:59.030Z,2.20
2022-10-20T01:43:25.574Z,2.22
2022-10-20T01:45:52.218Z,3.63
2022-10-20T01:48:21.751Z,1.98
2022-10-20T01:50:48.548Z,2.97
2022-10-20T01:53:15.095Z,2.45
2022-10-20T01:55:41.610Z,2.45
2022-10-20T01:58:35.981Z,2.83
2022-10-20T02:01:21.194Z,1.23
2022-10-20T02:03:55.485Z,1.15
2022-10-20T02:06:56.058Z,2.13
2022-10-20T02:10:01.282Z,2.28
2022-10-20T02:12:28.804Z,2.80
2022-10-20T02:14:55.259Z,2.30
2022-10-20T02:17:21.850Z,1.77
2022-10-20T02:19:49.704Z,2.55
2022-10-20T02:22:16.156Z,1.92
2022-10-20T02:24:43.232Z,1.88
2022-10-20T02:27:22.211Z,2.90
2022-10-20T02:29:57.356Z,2.40
2022-10-20T02:32:24.252Z,2.17
2022-10-20T02:34:50.723Z,3.00
2022-10-20T02:39:48.629Z,1.45
2022-10-20T02:42:17.212Z,1.75
2022-10-20T02:44:43.840Z,1.38
2022-10-20T02:47:10.359Z,1.77
2022-10-20T02:49:36.808Z,1.58
2022-10-20T02:52:03.274Z,3.67
2022-10-20T02:54:29.726Z,7.22
2022-10-20T02:56:56.231Z,5.93
2022-10-20T02:59:23.213Z,4.97
2022-10-20T03:01:51.203Z,7.97
2022-10-20T03:04:17.780Z,11.70
2022-10-20T03:06:44.492Z,12.05
2022-10-20T03:09:11.038Z,11.43
2022-10-20T03:11:37.491Z,12.88
2022-10-20T03:14:04.045Z,11.20
2022-10-20T03:16:30.563Z,14.27
2022-10-20T03:19:00.042Z,12.02
2022-10-20T03:21:29.942Z,15.35
2022-10-20T03:23:56.428Z,20.83
2022-10-20T03:26:22.879Z,18.17
2022-10-20T03:28:49.393Z,18.55
2022-10-20T03:31:15.860Z,18.52
2022-10-20T03:33:42.337Z,17.05
2022-10-20T03:36:08.853Z,15.35
2022-10-20T03:38:35.334Z,19.70
2022-10-20T03:43:33.215Z,14.23
2022-10-20T03:46:07.114Z,18.58
2022-10-20T03:48:33.730Z,13.45
2022-10-20T03:51:01.079Z,18.65
2022-10-20T03:53:28.068Z,13.05
2022-10-20T03:55:54.544Z,13.75
2022-10-20T03:58:21.155Z,13.10
2022-10-20T04:00:47.871Z,16.58
2022-10-20T04:03:14.357Z,12.00
2022-10-20T04:05:40.890Z,15.10
2022-10-20T04:08:07.358Z,10.57
2022-10-20T04:10:33.830Z,13.52
2022-10-20T04:13:01.031Z,10.48
2022-10-20T04:15:27.509Z,13.65
2022-10-20T04:17:53.951Z,14.02
2022-10-20T04:20:20.483Z,9.30
2022-10-20T04:22:46.987Z,13.02
2022-10-20T04:25:13.469Z,11.23
2022-10-20T04:27:40.667Z,8.68
2022-10-20T04:30:07.959Z,10.65
2022-10-20T04:32:34.403Z,9.93
2022-10-20T04:35:00.851Z,9.60
2022-10-20T04:37:27.720Z,10.18
2022-10-20T04:39:54.484Z,12.30
2022-10-20T04:42:20.950Z,9.82
2022-10-20T04:44:47.456Z,10.10
2022-10-20T04:47:13.979Z,9.77
2022-10-20T04:49:40.639Z,8.23
2022-10-20T04:52:07.167Z,10.70
2022-10-20T04:54:33.645Z,9.15
2022-10-20T04:57:00.105Z,7.75
2022-10-20T04:59:26.722Z,11.30
2022-10-20T05:01:53.253Z,7.40
2022-10-20T05:04:21.859Z,11.07
2022-10-20T05:06:48.985Z,13.05
2022-10-20T05:09:15.681Z,7.72
2022-10-20T05:11:42.325Z,10.93
2022-10-20T05:14:08.862Z,9.18
2022-10-20T05:16:35.347Z,11.35
2022-10-20T05:19:01.821Z,8.93
2022-10-20T05:21:29.504Z,11.23
2022-10-20T05:23:57.439Z,14.23
2022-10-20T05:26:24.033Z,12.05
2022-10-20T05:28:50.765Z,13.52
2022-10-20T05:31:18.324Z,12.13
2022-10-20T05:33:46.312Z,9.48
2022-10-20T05:36:18.029Z,10.13
2022-10-20T05:38:47.492Z,14.82
2022-10-20T05:41:18.085Z,14.48
2022-10-20T05:43:57.197Z,10.60
2022-10-20T05:46:24.269Z,13.45
2022-10-20T05:48:52.820Z,11.40
2022-10-20T05:51:20.491Z,15.63
2022-10-20T05:53:47.140Z,15.00
2022-10-20T05:56:16.033Z,13.02
2022-10-20T05:58:42.863Z,14.23
2022-10-20T06:01:23.343Z,15.30
2022-10-20T06:03:52.933Z,15.80
2022-10-20T06:06:20.044Z,11.40
2022-10-20T06:08:46.707Z,14.63
2022-10-20T06:11:13.692Z,14.60
2022-10-20T06:13:40.180Z,9.70
2022-10-20T06:16:12.040Z,12.05
2022-10-20T06:18:42.886Z,11.88
2022-10-20T06:21:16.127Z,11.82
2022-10-20T06:23:42.620Z,11.05
2022-10-20T06:26:13.748Z,18.02
2022-10-20T06:28:40.840Z,15.48
2022-10-20T06:31:17.601Z,9.30
2022-10-20T06:33:44.145Z,13.68
2022-10-20T06:36:11.140Z,11.02
2022-10-20T06:38:38.551Z,12.63
2022-10-20T06:41:05.696Z,12.50
2022-10-20T06:43:32.405Z,10.23
2022-10-20T06:46:03.525Z,13.32
2022-10-20T06:48:30.016Z,10.20
2022-10-20T06:51:10.796Z,11.63
2022-10-20T06:53:37.295Z,11.55
2022-10-20T06:56:07.960Z,9.27
2022-10-20T06:58:35.496Z,9.85
2022-10-20T07:01:05.649Z,13.13
2022-10-20T07:03:36.303Z,11.18
2022-10-20T07:06:03.278Z,10.05
2022-10-20T07:08:31.055Z,9.80
2022-10-20T07:11:01.869Z,14.40
2022-10-20T07:13:28.426Z,13.02
2022-10-20T07:15:55.717Z,11.85
2022-10-20T07:18:22.331Z,10.85
2022-10-20T07:20:48.962Z,9.98
2022-10-20T07:23:16.938Z,9.73
2022-10-20T07:25:43.481Z,8.73
2022-10-20T07:28:10.009Z,5.20
2022-10-20T07:30:42.378Z,8.70
2022-10-20T07:33:09.461Z,4.35
2022-10-20T07:35:36.105Z,7.70
2022-10-20T07:38:02.585Z,4.10
2022-10-20T07:40:30.471Z,4.63
2022-10-20T07:42:56.970Z,6.00
2022-10-20T07:45:23.478Z,7.13
2022-10-20T07:47:49.939Z,9.38
2022-10-20T07:50:16.482Z,5.00
2022-10-20T07:52:42.959Z,6.07
2022-10-20T07:55:31.909Z,5.47
2022-10-20T07:57:55.943Z,11.45
2022-10-20T08:00:22.416Z,11.25
2022-10-20T08:02:48.882Z,5.00
2022-10-20T08:05:15.439Z,3.90
2022-10-20T08:07:41.900Z,6.03
2022-10-20T08:10:08.699Z,6.25
2022-10-20T08:12:35.467Z,5.78
2022-10-20T08:17:45.772Z,11.02
2022-10-20T08:20:17.224Z,9.15
2022-10-20T08:22:43.686Z,7.20
2022-10-20T08:25:13.753Z,8.93
2022-10-20T08:27:40.197Z,6.82
2022-10-20T08:30:22.958Z,5.53
2022-10-20T08:32:53.510Z,7.40
2022-10-20T08:35:20.682Z,8.70
2022-10-20T08:37:47.249Z,3.83
2022-10-20T08:40:25.293Z,4.95
2022-10-20T08:42:51.835Z,5.30
2022-10-20T08:45:23.349Z,6.30
2022-10-20T08:47:51.931Z,6.93
2022-10-20T08:50:19.046Z,5.63
2022-10-20T08:52:46.175Z,6.55
2022-10-20T08:55:28.157Z,7.10
2022-10-20T08:57:58.724Z,9.10
2022-10-20T09:00:25.533Z,7.20
2022-10-20T09:02:52.089Z,4.28
2022-10-20T09:05:24.352Z,5.00
2022-10-20T09:07:51.410Z,7.97
2022-10-20T09:10:36.381Z,4.28
2022-10-20T09:13:03.456Z,3.63
2022-10-20T09:15:29.979Z,7.97
2022-10-20T09:18:00.330Z,8.13
2022-10-20T09:20:59.032Z,4.47
2022-10-20T09:23:40.455Z,9.50
2022-10-20T09:26:32.097Z,6.85
2022-10-20T09:29:14.029Z,4.25
2022-10-20T09:31:43.917Z,8.23
2022-10-20T09:34:32.953Z,4.10
2022-10-20T09:37:06.543Z,5.20
2022-10-20T09:39:43.037Z,4.35
2022-10-20T09:42:19.232Z,3.85
2022-10-20T09:44:50.535Z,3.78
2022-10-20T09:47:17.015Z,3.75
2022-10-20T09:49:44.159Z,4.65
2022-10-20T09:52:17.193Z,3.72
2022-10-20T09:54:47.130Z,3.70
2022-10-20T09:57:18.144Z,3.47
2022-10-20T09:59:45.680Z,4.13
2022-10-20T10:02:15.049Z,3.17
2022-10-20T10:04:43.402Z,7.18
2022-10-20T10:07:21.918Z,4.47
2022-10-20T10:10:08.693Z,3.33
2022-10-20T10:12:35.954Z,2.30
2022-10-20T10:15:05.576Z,2.95
2022-10-20T10:17:37.461Z,6.10
2022-10-20T10:20:07.746Z,5.95
2022-10-20T10:22:34.500Z,5.45
2022-10-20T10:25:01.186Z,4.03
2022-10-20T10:27:28.459Z,3.67
2022-10-20T10:29:55.793Z,3.55
2022-10-20T10:32:29.083Z,2.85
2022-10-20T10:35:15.478Z,2.97
2022-10-20T10:37:42.662Z,5.80
2022-10-20T10:40:20.096Z,5.38
2022-10-20T10:43:07.877Z,4.90
2022-10-20T10:45:47.832Z,9.82
2022-10-20T10:48:38.911Z,6.18
2022-10-20T10:51:09.055Z,6.80
2022-10-20T10:53:40.210Z,4.55
2022-10-20T10:56:19.140Z,3.55
2022-10-20T10:59:10.527Z,5.32
2022-10-20T11:02:01.980Z,2.95
2022-10-20T11:04:40.642Z,2.70
2022-10-20T11:07:27.980Z,11.45
2022-10-20T11:10:26.795Z,8.68
2022-10-20T11:12:59.490Z,5.63
2022-10-20T11:15:52.890Z,4.82
2022-10-20T11:18:34.034Z,6.07
2022-10-20T11:21:26.840Z,4.32
2022-10-20T11:24:17.944Z,5.15
2022-10-20T11:26:45.963Z,4.28
2022-10-20T11:29:16.475Z,5.57
2022-10-20T11:31:54.454Z,7.70
2022-10-20T11:34:36.697Z,1.90
2022-10-20T11:37:28.060Z,5.88
2022-10-20T11:40:20.369Z,3.50
2022-10-20T11:43:45.693Z,5.47
2022-10-20T11:46:20.972Z,3.35
2022-10-20T11:48:54.725Z,4.15
2022-10-20T11:51:29.966Z,1.75
2022-10-20T11:54:28.287Z,2.92
2022-10-20T11:57:12.675Z,7.78
2022-10-20T12:02:34.519Z,4.18
2022-10-20T12:05:31.153Z,2.47
2022-10-20T12:08:29.868Z,1.33
2022-10-20T12:11:26.399Z,1.88
2022-10-20T12:14:06.965Z,7.43
2022-10-20T12:16:51.674Z,1.75
2022-10-20T12:19:31.603Z,4.47
2022-10-20T12:22:29.831Z,4.13
2022-10-20T12:24:56.133Z,3.90
2022-10-20T12:27:23.737Z,1.77
2022-10-20T12:29:52.001Z,3.03
2022-10-20T12:32:21.392Z,2.28
2022-10-20T12:34:49.159Z,4.10
2022-10-20T12:37:25.547Z,6.20
2022-10-20T12:39:53.037Z,4.68
2022-10-20T12:42:24.115Z,3.42
2022-10-20T12:44:50.630Z,4.00
2022-10-20T12:47:29.776Z,4.00
2022-10-20T12:49:59.550Z,1.85
2022-10-20T12:52:34.158Z,4.15
2022-10-20T12:55:18.701Z,4.07
2022-10-20T12:57:45.681Z,5.68
2022-10-20T13:00:24.293Z,4.20
2022-10-20T13:02:57.314Z,2.20
2022-10-20T13:05:40.726Z,5.82
2022-10-20T13:08:19.284Z,2.75
2022-10-20T13:10:46.011Z,4.55
2022-10-20T13:13:12.365Z,2.13
2022-10-20T13:15:43.499Z,4.22
2022-10-20T13:18:13.058Z,3.28
2022-10-20T13:21:00.885Z,2.55
2022-10-20T13:23:46.740Z,4.28
2022-10-20T13:26:30.316Z,6.50
2022-10-20T13:28:58.624Z,4.13
2022-10-20T13:31:42.776Z,2.10
2022-10-20T13:34:41.521Z,3.60
2022-10-20T13:37:19.147Z,3.00
2022-10-20T13:40:28.427Z,3.72
2022-10-20T13:43:17.847Z,7.60
2022-10-20T13:46:22.021Z,15.48
2022-10-20T13:49:13.516Z,14.43
2022-10-20T13:51:45.043Z,19.23
2022-10-20T13:54:31.764Z,18.35
2022-10-20T13:56:58.257Z,14.93
2022-10-20T13:59:26.494Z,14.93
2022-10-20T14:02:20.808Z,18.17
2022-10-20T14:04:47.286Z,17.95
2022-10-20T14:07:15.638Z,17.95
2022-10-20T14:09:45.520Z,12.95
2022-10-20T14:12:24.810Z,10.85
2022-10-20T14:14:51.365Z,17.23
2022-10-20T14:17:19.557Z,14.55
2022-10-20T14:19:46.949Z,10.90
2022-10-20T14:22:23.581Z,8.80
2022-10-20T14:24:56.668Z,7.75
2022-10-20T14:27:30.519Z,7.28
2022-10-20T14:29:57.102Z,13.13
2022-10-20T14:32:24.908Z,11.48
2022-10-20T14:35:02.363Z,7.40
2022-10-20T14:37:34.806Z,11.85
2022-10-20T14:40:08.841Z,10.60
2022-10-20T14:42:35.712Z,8.02
2022-10-20T14:45:02.514Z,7.07
2022-10-20T14:47:34.189Z,13.85
2022-10-20T14:50:00.857Z,5.22
2022-10-20T14:52:31.581Z,7.97
2022-10-20T14:54:58.080Z,5.22
2022-10-20T14:57:24.405Z,6.00
2022-10-20T15:00:06.098Z,5.47
2022-10-20T15:02:39.967Z,5.43
2022-10-20T15:05:24.151Z,10.90
2022-10-20T15:07:50.820Z,6.15
2022-10-20T15:10:18.568Z,7.18
2022-10-20T15:12:48.069Z,6.50
2022-10-20T15:15:28.918Z,7.80
2022-10-20T15:18:04.595Z,5.47
2022-10-20T15:20:34.140Z,5.68
2022-10-20T15:23:12.839Z,4.38
2022-10-20T15:25:53.811Z,6.25
2022-10-20T15:28:25.589Z,6.72
2022-10-20T15:30:52.099Z,6.80
2022-10-20T15:33:18.931Z,9.93
2022-10-20T15:35:47.434Z,8.30
2022-10-20T15:38:14.812Z,6.03
2022-10-20T15:40:41.573Z,7.00
2022-10-20T15:43:13.961Z,5.88
2022-10-20T15:45:45.543Z,6.95
2022-10-20T15:48:12.061Z,6.82
2022-10-20T15:50:39.016Z,5.53
2022-10-20T15:53:05.712Z,6.47
2022-10-20T15:55:33.940Z,5.75
2022-10-20T15:58:00.578Z,7.50
2022-10-20T16:00:27.686Z,6.40
2022-10-20T16:02:54.199Z,6.47
2022-10-20T16:05:25.649Z,7.70
2022-10-20T16:07:54.844Z,4.05
2022-10-20T16:10:22.542Z,5.40
2022-10-20T16:12:49.185Z,4.05
2022-10-20T16:15:15.743Z,6.70
2022-10-20T16:17:42.258Z,4.72
2022-10-20T16:20:09.330Z,5.63
2022-10-20T16:22:35.998Z,7.03
2022-10-20T16:25:02.931Z,6.32
2022-10-20T16:27:29.978Z,5.30
2022-10-20T16:29:56.491Z,6.10
2022-10-20T16:32:22.947Z,4.50
2022-10-20T16:34:49.438Z,4.55
2022-10-20T16:37:15.919Z,4.97
2022-10-20T16:39:42.397Z,6.57
2022-10-20T16:42:09.013Z,5.85
2022-10-20T16:44:35.494Z,3.42
2022-10-20T16:47:01.987Z,5.75
2022-10-20T16:49:28.798Z,4.95
2022-10-20T16:51:55.267Z,5.63
2022-10-20T16:54:21.732Z,6.50
2022-10-20T16:56:49.014Z,5.32
2022-10-20T16:59:15.467Z,7.90
2022-10-20T17:01:41.970Z,8.27
2022-10-20T17:04:08.450Z,4.97
2022-10-20T17:06:35.016Z,6.32
2022-10-20T17:09:01.585Z,4.07
2022-10-20T17:11:29.347Z,6.32
2022-10-20T17:13:56.239Z,9.85
2022-10-20T17:16:28.716Z,8.13
2022-10-20T17:18:56.370Z,6.13
2022-10-20T17:21:22.846Z,4.70
2022-10-20T17:23:49.288Z,7.63
2022-10-20T17:26:17.564Z,6.05
2022-10-20T17:28:44.032Z,7.85
2022-10-20T17:31:12.143Z,3.35
2022-10-20T17:33:38.760Z,7.60
2022-10-20T17:36:05.707Z,3.40
2022-10-20T17:38:32.329Z,5.78
2022-10-20T17:41:05.047Z,4.28
2022-10-20T17:43:31.564Z,4.90
2022-10-20T17:46:05.450Z,2.80
2022-10-20T17:48:31.977Z,3.70
2022-10-20T17:51:09.832Z,2.70
2022-10-20T17:53:37.981Z,3.72
2022-10-20T17:56:06.012Z,7.50
2022-10-20T17:58:33.817Z,4.68
2022-10-20T18:01:08.762Z,7.07
2022-10-20T18:03:35.290Z,7.88
2022-10-20T18:06:15.976Z,10.52
2022-10-20T18:08:42.512Z,3.83
2022-10-20T18:11:13.239Z,5.95
2022-10-20T18:13:40.400Z,5.53
2022-10-20T18:16:10.746Z,7.47
2022-10-20T18:18:37.259Z,8.77
2022-10-20T18:21:04.070Z,7.70
2022-10-20T18:23:31.327Z,7.80
2022-10-20T18:25:58.015Z,5.35
2022-10-20T18:28:25.058Z,5.38
2022-10-20T18:30:51.780Z,18.33
2022-10-20T18:33:18.258Z,13.68
2022-10-20T18:35:44.926Z,11.43
2022-10-20T18:38:11.415Z,5.32
2022-10-20T18:40:37.950Z,7.60
2022-10-20T18:43:04.420Z,5.47
2022-10-20T18:45:31.164Z,5.82
2022-10-20T18:47:57.630Z,9.10
2022-10-20T18:50:24.088Z,5.95
2022-10-20T18:52:50.557Z,7.00
2022-10-20T18:55:17.065Z,4.82
2022-10-20T18:57:43.889Z,8.50
2022-10-20T19:00:11.068Z,8.88
2022-10-20T19:02:37.604Z,4.03
2022-10-20T19:05:04.568Z,4.93
2022-10-20T19:07:34.825Z,5.97
2022-10-20T19:10:01.380Z,9.00
2022-10-20T19:12:27.880Z,7.63
2022-10-20T19:14:55.409Z,4.28
2022-10-20T19:17:21.947Z,5.10
2022-10-20T19:19:48.410Z,4.00
2022-10-20T19:22:14.923Z,6.78
2022-10-20T19:24:41.460Z,6.25
2022-10-20T19:27:25.746Z,6.82
2022-10-20T19:29:53.335Z,5.60
2022-10-20T19:32:19.852Z,7.50
2022-10-20T19:34:46.361Z,6.38
2022-10-20T19:37:12.827Z,6.15
2022-10-20T19:39:40.971Z,6.35
2022-10-20T19:42:07.752Z,5.90
2022-10-20T19:44:34.358Z,8.43
2022-10-20T19:47:00.979Z,8.27
2022-10-20T19:49:27.471Z,6.90
2022-10-20T19:51:54.065Z,8.15
2022-10-20T19:54:20.565Z,7.15
2022-10-20T19:56:47.101Z,5.60
2022-10-20T19:59:13.817Z,5.15
2022-10-20T20:01:40.363Z,4.80
2022-10-20T20:04:06.834Z,8.38
2022-10-20T20:06:33.882Z,6.78
2022-10-20T20:09:01.366Z,9.00
2022-10-20T20:11:30.587Z,6.82
2022-10-20T20:14:01.812Z,8.73
2022-10-20T20:16:28.597Z,9.45
2022-10-20T20:18:55.332Z,7.68
2022-10-20T20:21:22.038Z,9.50
2022-10-20T20:23:58.982Z,9.10
2022-10-20T20:26:27.168Z,8.48
2022-10-20T20:28:54.151Z,8.82
2022-10-20T20:31:20.910Z,14.05
2022-10-20T20:33:47.415Z,23.90
2022-10-20T20:36:13.890Z,28.50
2022-10-20T20:38:41.432Z,27.38
2022-10-20T20:41:11.287Z,32.45
2022-10-20T20:43:37.813Z,39.03
2022-10-20T20:46:09.171Z,33.85
2022-10-20T20:48:36.020Z,31.70
2022-10-20T20:51:02.508Z,36.85
2022-10-20T20:53:29.049Z,29.02
2022-10-20T20:55:59.077Z,31.95
2022-10-20T20:58:25.878Z,31.35
2022-10-20T21:00:52.508Z,27.60
2022-10-20T21:03:19.189Z,28.13
2022-10-20T21:05:45.651Z,26.83
2022-10-20T21:08:12.102Z,28.08
2022-10-20T21:10:38.599Z,25.92
2022-10-20T21:13:05.047Z,25.50
2022-10-20T21:15:31.521Z,26.60
2022-10-20T21:17:57.989Z,25.55
2022-10-20T21:20:24.464Z,25.58
2022-10-20T21:22:50.969Z,24.48
2022-10-20T21:25:17.499Z,22.60
2022-10-20T21:27:44.007Z,22.00
2022-10-20T21:30:10.530Z,20.20
2022-10-20T21:32:37.249Z,22.92
2022-10-20T21:35:03.851Z,21.38
2022-10-20T21:37:30.299Z,25.95
2022-10-20T21:39:56.764Z,48.75
2022-10-20T21:42:23.262Z,69.60
2022-10-20T21:44:50.234Z,55.55
2022-10-20T21:47:16.732Z,44.92
2022-10-20T21:49:43.215Z,42.30
2022-10-20T21:52:09.687Z,36.50
2022-10-20T21:54:36.161Z,31.23
2022-10-20T21:57:02.911Z,31.83
2022-10-20T21:59:30.098Z,29.63
2022-10-20T22:01:58.124Z,23.67
2022-10-20T22:04:29.023Z,26.70
2022-10-20T22:06:55.570Z,25.20
2022-10-20T22:09:22.232Z,24.20
2022-10-20T22:11:55.141Z,27.27
2022-10-20T22:14:21.790Z,21.30
2022-10-20T22:16:48.452Z,21.65
2022-10-20T22:19:19.406Z,23.35
2022-10-20T22:21:47.256Z,20.92
2022-10-20T22:24:13.875Z,24.35
2022-10-20T22:26:40.572Z,24.08
2022-10-20T22:29:09.416Z,19.00
2022-10-20T22:31:36.833Z,19.67
2022-10-20T22:34:03.306Z,19.98
2022-10-20T22:36:29.973Z,20.63
2022-10-20T22:38:56.459Z,17.65
2022-10-20T22:41:23.031Z,20.92
2022-10-20T22:43:49.504Z,21.85
2022-10-20T22:46:16.268Z,19.15
2022-10-20T22:48:42.904Z,17.27
2022-10-20T22:51:09.483Z,18.75
2022-10-20T22:53:36.785Z,16.60
2022-10-20T22:56:10.381Z,16.77
2022-10-20T22:58:36.904Z,19.30
2022-10-20T23:01:11.139Z,18.70
2022-10-20T23:03:37.801Z,16.30
2022-10-20T23:06:14.693Z,14.50
2022-10-20T23:08:45.327Z,14.90
2022-10-20T23:11:11.962Z,15.38
2022-10-20T23:13:38.475Z,17.35
2022-10-20T23:16:05.110Z,15.00
2022-10-20T23:18:31.624Z,13.60
2022-10-20T23:20:58.444Z,14.63
2022-10-20T23:23:25.028Z,13.95
2022-10-20T23:25:51.571Z,13.57
2022-10-20T23:28:20.857Z,13.20
2022-10-20T23:30:47.400Z,15.32
2022-10-20T23:33:13.880Z,13.27
2022-10-20T23:35:40.403Z,14.20
2022-10-20T23:38:07.649Z,13.65
2022-10-20T23:40:34.139Z,10.88
2022-10-20T23:43:00.686Z,13.57
2022-10-20T23:45:27.138Z,14.02
2022-10-20T23:47:53.631Z,10.80
2022-10-20T23:50:23.543Z,13.38
2022-10-20T23:52:50.030Z,10.52
2022-10-20T23:55:16.498Z,13.32
2022-10-20T23:57:42.974Z,11.57
